Oluja — V7QE8 — position and weather

sailwx.info

Track history (hours):
 
Tides and Currents Weather Stations Pressure Air Temp Water Temp Dewpoint Dewpoint Depression Visibility Wind Speed Wind Dir Waves Ship Positions

Oluja

Last reported at 2016-May-02 07:21 UTC. Time now 2016-May-30 16:29 UTC.
Position N 15°02' W 017°50'.
Warning: this ship's position is 28 days out of date.

Length 188 m; draft 8.8 m.

Type: Cargo ship. MMSI: 538003345.

Date/timePositionNaut miles runAvg speedWind from/ knotsBaromVisibWave heightAir tempDewpointWater temp
2016-May-02 07:21N 15°02' W 017°50'1312.7
2016-May-02 06:21N 15°14' W 017°51'1012.7
2016-May-02 05:33N 15°24' W 017°51'1312.7
2016-May-02 04:33N 15°37' W 017°52'1312.6
2016-May-02 03:32N 15°50' W 017°53'1312.8
2016-May-02 02:28N 16°04' W 017°53'1213.0
2016-May-02 01:33N 16°15' W 017°54'1312.9
2016-May-02 00:33N 16°28' W 017°55'  
2016-Apr-27 11:26N 35°58' W 005°35'8 9.1
2016-Apr-27 10:33N 36°01' W 005°26'8 1.3
2016-Apr-27 04:23N 36°08' W 005°22'0 0.1
2016-Apr-27 01:05N 36°08' W 005°22'0 0.1
2016-Apr-27 00:17N 36°08' W 005°22'2 1.8
2016-Apr-26 23:15N 36°06' W 005°22'3 3.8
2016-Apr-26 22:33N 36°05' W 005°19'6 6.3
2016-Apr-26 21:33N 36°05' W 005°11'21412.5
2016-Apr-26 04:29N 36°22' W 000°46'5112.4
2016-Apr-26 00:22N 36°34' E 000°16'3512.3
2016-Apr-25 21:33N 36°42' E 000°58'58911.8
2016-Apr-23 19:33N 36°54' E 013°13'1211.4
2016-Apr-23 18:32N 36°51' E 013°27'1211.9
2016-Apr-23 17:33N 36°49' E 013°41'1211.7
2016-Apr-23 16:33N 36°47' E 013°56'1211.5
2016-Apr-23 15:33N 36°44' E 014°10'1111.4
2016-Apr-23 14:33N 36°42' E 014°24'1111.0
2016-Apr-23 13:33N 36°40' E 014°37'1211.0
2016-Apr-23 12:30N 36°37' E 014°51'3511.8
2016-Apr-23 09:30N 36°33' E 015°35'2912.4
2016-Apr-23 07:09N 36°32' E 016°11'  
Track history (hours):
 
Tides and Currents Weather Stations Pressure Air Temp Water Temp Dewpoint Dewpoint Depression Visibility Wind Speed Wind Dir Waves Ship Positions

Oluja

Last reported at 2016-May-02 07:21 UTC. Time now 2016-May-30 16:29 UTC.
Position N 15°02' W 017°50'.
Warning: this ship's position is 28 days out of date.

Length 188 m; draft 8.8 m.

Type: Cargo ship. MMSI: 538003345.

Date/timePositionNaut miles runAvg speedWind from/ knotsBaromVisibWave heightAir tempDewpointWater temp
2016-May-02 07:21N 15°02' W 017°50'1312.7
2016-May-02 06:21N 15°14' W 017°51'1012.7
2016-May-02 05:33N 15°24' W 017°51'1312.7
2016-May-02 04:33N 15°37' W 017°52'1312.6
2016-May-02 03:32N 15°50' W 017°53'1312.8
2016-May-02 02:28N 16°04' W 017°53'1213.0
2016-May-02 01:33N 16°15' W 017°54'1312.9
2016-May-02 00:33N 16°28' W 017°55'  
2016-Apr-27 11:26N 35°58' W 005°35'8 9.1
2016-Apr-27 10:33N 36°01' W 005°26'8 1.3
2016-Apr-27 04:23N 36°08' W 005°22'0 0.1
2016-Apr-27 01:05N 36°08' W 005°22'0 0.1
2016-Apr-27 00:17N 36°08' W 005°22'2 1.8
2016-Apr-26 23:15N 36°06' W 005°22'3 3.8
2016-Apr-26 22:33N 36°05' W 005°19'6 6.3
2016-Apr-26 21:33N 36°05' W 005°11'21412.5
2016-Apr-26 04:29N 36°22' W 000°46'5112.4
2016-Apr-26 00:22N 36°34' E 000°16'3512.3
2016-Apr-25 21:33N 36°42' E 000°58'58911.8
2016-Apr-23 19:33N 36°54' E 013°13'1211.4
2016-Apr-23 18:32N 36°51' E 013°27'1211.9
2016-Apr-23 17:33N 36°49' E 013°41'1211.7
2016-Apr-23 16:33N 36°47' E 013°56'1211.5
2016-Apr-23 15:33N 36°44' E 014°10'1111.4
2016-Apr-23 14:33N 36°42' E 014°24'1111.0
2016-Apr-23 13:33N 36°40' E 014°37'1211.0
2016-Apr-23 12:30N 36°37' E 014°51'3511.8
2016-Apr-23 09:30N 36°33' E 015°35'2912.4
2016-Apr-23 07:09N 36°32' E 016°11'  

Dump ship's entire track history